sensor_id;sensor_type;location;lat;lon;timestamp;temperature;humidity
36416;DHT22;22447;44.530;18.620;2023-07-31T00:00:33;19.20;99.90
36416;DHT22;22447;44.530;18.620;2023-07-31T00:02:59;19.20;99.90
36416;DHT22;22447;44.530;18.620;2023-07-31T00:05:25;19.20;99.90
36416;DHT22;22447;44.530;18.620;2023-07-31T00:07:51;19.20;99.90
36416;DHT22;22447;44.530;18.620;2023-07-31T00:10:17;19.20;99.90
36416;DHT22;22447;44.530;18.620;2023-07-31T00:12:44;19.20;99.90
36416;DHT22;22447;44.530;18.620;2023-07-31T00:15:11;19.20;99.90
36416;DHT22;22447;44.530;18.620;2023-07-31T00:17:37;19.20;99.90
36416;DHT22;22447;44.530;18.620;2023-07-31T00:20:03;19.20;99.90
36416;DHT22;22447;44.530;18.620;2023-07-31T00:22:29;19.10;99.90
36416;DHT22;22447;44.530;18.620;2023-07-31T00:24:56;19.00;99.90
36416;DHT22;22447;44.530;18.620;2023-07-31T00:27:22;19.00;99.90
36416;DHT22;22447;44.530;18.620;2023-07-31T00:29:49;18.90;99.90
36416;DHT22;22447;44.530;18.620;2023-07-31T00:32:15;18.90;99.90
36416;DHT22;22447;44.530;18.620;2023-07-31T00:34:41;18.80;99.90
36416;DHT22;22447;44.530;18.620;2023-07-31T00:37:07;18.80;99.90
36416;DHT22;22447;44.530;18.620;2023-07-31T00:39:37;18.80;99.90
36416;DHT22;22447;44.530;18.620;2023-07-31T00:42:03;18.80;99.90
36416;DHT22;22447;44.530;18.620;2023-07-31T00:44:29;18.70;99.90
36416;DHT22;22447;44.530;18.620;2023-07-31T00:46:56;18.70;99.90
36416;DHT22;22447;44.530;18.620;2023-07-31T00:49:23;18.80;99.90
36416;DHT22;22447;44.530;18.620;2023-07-31T00:51:49;18.80;99.90
36416;DHT22;22447;44.530;18.620;2023-07-31T00:54:15;18.70;99.90
36416;DHT22;22447;44.530;18.620;2023-07-31T00:56:42;18.70;99.90
36416;DHT22;22447;44.530;18.620;2023-07-31T00:59:09;18.70;99.90
36416;DHT22;22447;44.530;18.620;2023-07-31T01:01:35;18.70;99.90
36416;DHT22;22447;44.530;18.620;2023-07-31T01:04:03;18.70;99.90
36416;DHT22;22447;44.530;18.620;2023-07-31T01:06:48;18.70;99.90
36416;DHT22;22447;44.530;18.620;2023-07-31T01:09:44;18.60;99.90
36416;DHT22;22447;44.530;18.620;2023-07-31T01:12:15;18.60;99.90
36416;DHT22;22447;44.530;18.620;2023-07-31T01:14:52;18.60;99.90
36416;DHT22;22447;44.530;18.620;2023-07-31T01:17:18;18.60;99.90
36416;DHT22;22447;44.530;18.620;2023-07-31T01:19:44;18.60;99.90
36416;DHT22;22447;44.530;18.620;2023-07-31T01:25:32;18.60;99.90
36416;DHT22;22447;44.530;18.620;2023-07-31T01:28:09;18.50;99.90
36416;DHT22;22447;44.530;18.620;2023-07-31T01:30:42;18.50;99.90
36416;DHT22;22447;44.530;18.620;2023-07-31T01:33:09;18.40;99.90
36416;DHT22;22447;44.530;18.620;2023-07-31T01:35:36;18.40;99.90
36416;DHT22;22447;44.530;18.620;2023-07-31T01:38:03;18.30;99.90
36416;DHT22;22447;44.530;18.620;2023-07-31T01:40:30;18.40;99.90
36416;DHT22;22447;44.530;18.620;2023-07-31T01:42:55;18.40;99.90
36416;DHT22;22447;44.530;18.620;2023-07-31T01:45:21;18.40;99.90
36416;DHT22;22447;44.530;18.620;2023-07-31T01:47:47;18.30;99.90
36416;DHT22;22447;44.530;18.620;2023-07-31T01:50:13;18.20;99.90
36416;DHT22;22447;44.530;18.620;2023-07-31T01:52:39;18.30;99.90
36416;DHT22;22447;44.530;18.620;2023-07-31T01:55:05;18.30;99.90
36416;DHT22;22447;44.530;18.620;2023-07-31T01:57:31;18.20;99.90
36416;DHT22;22447;44.530;18.620;2023-07-31T01:59:57;18.10;99.90
36416;DHT22;22447;44.530;18.620;2023-07-31T02:02:23;18.10;99.90
36416;DHT22;22447;44.530;18.620;2023-07-31T02:04:49;18.10;99.90
36416;DHT22;22447;44.530;18.620;2023-07-31T02:07:15;18.10;99.90
36416;DHT22;22447;44.530;18.620;2023-07-31T02:09:41;18.00;99.90
36416;DHT22;22447;44.530;18.620;2023-07-31T02:12:07;18.00;99.90
36416;DHT22;22447;44.530;18.620;2023-07-31T02:14:34;18.00;99.90
36416;DHT22;22447;44.530;18.620;2023-07-31T02:17:01;17.90;99.90
36416;DHT22;22447;44.530;18.620;2023-07-31T02:19:27;18.00;99.90
36416;DHT22;22447;44.530;18.620;2023-07-31T02:21:52;18.00;99.90
36416;DHT22;22447;44.530;18.620;2023-07-31T02:24:18;17.90;99.90
36416;DHT22;22447;44.530;18.620;2023-07-31T02:26:44;17.90;99.90
36416;DHT22;22447;44.530;18.620;2023-07-31T02:29:10;17.90;99.90
36416;DHT22;22447;44.530;18.620;2023-07-31T02:31:36;17.90;99.90
36416;DHT22;22447;44.530;18.620;2023-07-31T02:34:02;17.80;99.90
36416;DHT22;22447;44.530;18.620;2023-07-31T02:36:27;17.80;99.90
36416;DHT22;22447;44.530;18.620;2023-07-31T02:38:55;17.90;99.90
36416;DHT22;22447;44.530;18.620;2023-07-31T02:41:21;17.80;99.90
36416;DHT22;22447;44.530;18.620;2023-07-31T02:43:47;17.90;99.90
36416;DHT22;22447;44.530;18.620;2023-07-31T02:46:12;17.90;99.90
36416;DHT22;22447;44.530;18.620;2023-07-31T02:48:38;17.90;99.90
36416;DHT22;22447;44.530;18.620;2023-07-31T02:51:04;17.90;99.90
36416;DHT22;22447;44.530;18.620;2023-07-31T02:53:30;17.80;99.90
36416;DHT22;22447;44.530;18.620;2023-07-31T02:55:56;17.90;99.90
36416;DHT22;22447;44.530;18.620;2023-07-31T02:58:22;17.80;99.90
36416;DHT22;22447;44.530;18.620;2023-07-31T03:00:48;17.80;99.90
36416;DHT22;22447;44.530;18.620;2023-07-31T03:03:14;17.80;99.90
36416;DHT22;22447;44.530;18.620;2023-07-31T03:05:40;18.00;99.90
36416;DHT22;22447;44.530;18.620;2023-07-31T03:08:05;17.90;99.90
36416;DHT22;22447;44.530;18.620;2023-07-31T03:10:31;17.90;99.90
36416;DHT22;22447;44.530;18.620;2023-07-31T03:12:58;17.80;99.90
36416;DHT22;22447;44.530;18.620;2023-07-31T03:15:24;17.80;99.90
36416;DHT22;22447;44.530;18.620;2023-07-31T03:17:49;17.80;99.90
36416;DHT22;22447;44.530;18.620;2023-07-31T03:20:15;17.90;99.90
36416;DHT22;22447;44.530;18.620;2023-07-31T03:22:41;17.70;99.90
36416;DHT22;22447;44.530;18.620;2023-07-31T03:25:07;17.60;99.90
36416;DHT22;22447;44.530;18.620;2023-07-31T03:27:35;17.60;99.90
36416;DHT22;22447;44.530;18.620;2023-07-31T03:30:03;17.50;99.90
36416;DHT22;22447;44.530;18.620;2023-07-31T03:32:29;17.50;99.90
36416;DHT22;22447;44.530;18.620;2023-07-31T03:34:55;17.50;99.90
36416;DHT22;22447;44.530;18.620;2023-07-31T03:37:21;17.50;99.90
36416;DHT22;22447;44.530;18.620;2023-07-31T03:39:47;17.60;99.90
36416;DHT22;22447;44.530;18.620;2023-07-31T03:42:13;17.60;99.90
36416;DHT22;22447;44.530;18.620;2023-07-31T03:44:38;17.50;99.90
36416;DHT22;22447;44.530;18.620;2023-07-31T03:47:05;17.50;99.90
36416;DHT22;22447;44.530;18.620;2023-07-31T03:49:31;17.50;99.90
36416;DHT22;22447;44.530;18.620;2023-07-31T03:51:56;17.60;99.90
36416;DHT22;22447;44.530;18.620;2023-07-31T03:54:22;17.60;99.90
36416;DHT22;22447;44.530;18.620;2023-07-31T03:56:48;17.60;99.90
36416;DHT22;22447;44.530;18.620;2023-07-31T03:59:14;17.60;99.90
36416;DHT22;22447;44.530;18.620;2023-07-31T04:01:40;17.60;99.90
36416;DHT22;22447;44.530;18.620;2023-07-31T04:04:06;17.70;99.90
36416;DHT22;22447;44.530;18.620;2023-07-31T04:06:32;17.80;99.90
36416;DHT22;22447;44.530;18.620;2023-07-31T04:08:58;17.80;99.90
36416;DHT22;22447;44.530;18.620;2023-07-31T04:11:23;17.90;99.90
36416;DHT22;22447;44.530;18.620;2023-07-31T04:13:49;17.90;99.90
36416;DHT22;22447;44.530;18.620;2023-07-31T04:16:15;18.00;99.90
36416;DHT22;22447;44.530;18.620;2023-07-31T04:18:41;18.00;99.90
36416;DHT22;22447;44.530;18.620;2023-07-31T04:21:07;18.10;99.90
36416;DHT22;22447;44.530;18.620;2023-07-31T04:23:33;18.10;99.90
36416;DHT22;22447;44.530;18.620;2023-07-31T04:25:58;18.20;99.90
36416;DHT22;22447;44.530;18.620;2023-07-31T04:28:24;18.20;99.90
36416;DHT22;22447;44.530;18.620;2023-07-31T04:30:51;18.30;99.90
36416;DHT22;22447;44.530;18.620;2023-07-31T04:33:18;18.40;99.90
36416;DHT22;22447;44.530;18.620;2023-07-31T04:35:52;18.50;99.90
36416;DHT22;22447;44.530;18.620;2023-07-31T04:38:21;18.70;99.90
36416;DHT22;22447;44.530;18.620;2023-07-31T04:40:48;18.80;99.90
36416;DHT22;22447;44.530;18.620;2023-07-31T04:43:14;18.90;99.90
36416;DHT22;22447;44.530;18.620;2023-07-31T04:45:42;18.90;99.90
36416;DHT22;22447;44.530;18.620;2023-07-31T04:48:08;19.00;99.90
36416;DHT22;22447;44.530;18.620;2023-07-31T04:50:34;19.10;99.90
36416;DHT22;22447;44.530;18.620;2023-07-31T04:53:00;19.10;99.90
36416;DHT22;22447;44.530;18.620;2023-07-31T04:55:26;19.10;99.90
36416;DHT22;22447;44.530;18.620;2023-07-31T04:57:51;19.00;99.90
36416;DHT22;22447;44.530;18.620;2023-07-31T05:00:17;19.10;99.90
36416;DHT22;22447;44.530;18.620;2023-07-31T05:02:43;19.20;99.90
36416;DHT22;22447;44.530;18.620;2023-07-31T05:05:09;19.20;99.90
36416;DHT22;22447;44.530;18.620;2023-07-31T05:07:35;19.40;99.90
36416;DHT22;22447;44.530;18.620;2023-07-31T05:10:01;19.50;99.90
36416;DHT22;22447;44.530;18.620;2023-07-31T05:12:27;19.50;99.90
36416;DHT22;22447;44.530;18.620;2023-07-31T05:14:52;19.60;99.90
36416;DHT22;22447;44.530;18.620;2023-07-31T05:17:18;19.60;99.90
36416;DHT22;22447;44.530;18.620;2023-07-31T05:19:44;19.70;99.90
36416;DHT22;22447;44.530;18.620;2023-07-31T05:22:10;19.70;99.90
36416;DHT22;22447;44.530;18.620;2023-07-31T05:24:36;19.80;99.90
36416;DHT22;22447;44.530;18.620;2023-07-31T05:27:02;19.80;99.90
36416;DHT22;22447;44.530;18.620;2023-07-31T05:29:28;19.70;99.90
36416;DHT22;22447;44.530;18.620;2023-07-31T05:31:54;19.50;99.90
36416;DHT22;22447;44.530;18.620;2023-07-31T05:34:20;19.70;99.90
36416;DHT22;22447;44.530;18.620;2023-07-31T05:36:51;19.70;99.90
36416;DHT22;22447;44.530;18.620;2023-07-31T05:39:17;19.80;99.90
36416;DHT22;22447;44.530;18.620;2023-07-31T05:41:45;19.90;99.90
36416;DHT22;22447;44.530;18.620;2023-07-31T05:44:11;20.00;99.90
36416;DHT22;22447;44.530;18.620;2023-07-31T05:46:37;19.80;99.90
36416;DHT22;22447;44.530;18.620;2023-07-31T05:49:03;19.80;99.90
36416;DHT22;22447;44.530;18.620;2023-07-31T05:51:29;20.00;99.90
36416;DHT22;22447;44.530;18.620;2023-07-31T05:53:54;20.20;99.90
36416;DHT22;22447;44.530;18.620;2023-07-31T05:56:20;20.30;99.90
36416;DHT22;22447;44.530;18.620;2023-07-31T05:58:46;20.30;99.90
36416;DHT22;22447;44.530;18.620;2023-07-31T06:01:13;20.40;99.90
36416;DHT22;22447;44.530;18.620;2023-07-31T06:03:39;20.40;99.90
36416;DHT22;22447;44.530;18.620;2023-07-31T06:06:05;20.40;99.90
36416;DHT22;22447;44.530;18.620;2023-07-31T06:08:31;20.50;99.90
36416;DHT22;22447;44.530;18.620;2023-07-31T06:10:56;20.60;99.90
36416;DHT22;22447;44.530;18.620;2023-07-31T06:13:22;20.40;99.90
36416;DHT22;22447;44.530;18.620;2023-07-31T06:15:48;20.50;99.90
36416;DHT22;22447;44.530;18.620;2023-07-31T06:18:14;20.60;99.90
36416;DHT22;22447;44.530;18.620;2023-07-31T06:20:40;20.80;99.90
36416;DHT22;22447;44.530;18.620;2023-07-31T06:23:06;20.90;99.90
36416;DHT22;22447;44.530;18.620;2023-07-31T06:25:33;21.00;99.90
36416;DHT22;22447;44.530;18.620;2023-07-31T06:27:58;20.80;99.90
36416;DHT22;22447;44.530;18.620;2023-07-31T06:30:24;20.80;99.90
36416;DHT22;22447;44.530;18.620;2023-07-31T06:32:50;21.00;99.90
36416;DHT22;22447;44.530;18.620;2023-07-31T06:35:16;21.00;99.90
36416;DHT22;22447;44.530;18.620;2023-07-31T06:37:42;20.90;99.90
36416;DHT22;22447;44.530;18.620;2023-07-31T06:40:10;21.20;99.90
36416;DHT22;22447;44.530;18.620;2023-07-31T06:42:36;21.80;99.90
36416;DHT22;22447;44.530;18.620;2023-07-31T06:45:02;22.20;99.90
36416;DHT22;22447;44.530;18.620;2023-07-31T06:47:28;22.60;99.90
36416;DHT22;22447;44.530;18.620;2023-07-31T06:49:55;22.80;99.90
36416;DHT22;22447;44.530;18.620;2023-07-31T06:52:21;23.10;99.90
36416;DHT22;22447;44.530;18.620;2023-07-31T06:55:00;23.10;99.90
36416;DHT22;22447;44.530;18.620;2023-07-31T06:57:27;23.20;99.90
36416;DHT22;22447;44.530;18.620;2023-07-31T06:59:53;23.10;99.90
36416;DHT22;22447;44.530;18.620;2023-07-31T07:02:19;23.20;99.90
36416;DHT22;22447;44.530;18.620;2023-07-31T07:04:45;23.20;99.90
36416;DHT22;22447;44.530;18.620;2023-07-31T07:07:10;23.30;99.90
36416;DHT22;22447;44.530;18.620;2023-07-31T07:09:37;23.40;99.90
36416;DHT22;22447;44.530;18.620;2023-07-31T07:12:02;23.50;99.90
36416;DHT22;22447;44.530;18.620;2023-07-31T07:14:28;23.60;99.90
36416;DHT22;22447;44.530;18.620;2023-07-31T07:16:54;23.70;99.90
36416;DHT22;22447;44.530;18.620;2023-07-31T07:19:20;23.70;99.90
36416;DHT22;22447;44.530;18.620;2023-07-31T07:21:46;23.70;99.90
36416;DHT22;22447;44.530;18.620;2023-07-31T07:24:17;23.90;99.90
36416;DHT22;22447;44.530;18.620;2023-07-31T07:26:43;24.10;99.90
36416;DHT22;22447;44.530;18.620;2023-07-31T07:29:09;24.40;99.90
36416;DHT22;22447;44.530;18.620;2023-07-31T07:31:38;24.60;99.90
36416;DHT22;22447;44.530;18.620;2023-07-31T07:34:04;24.70;99.90
36416;DHT22;22447;44.530;18.620;2023-07-31T07:36:30;24.70;99.90
36416;DHT22;22447;44.530;18.620;2023-07-31T07:38:58;24.60;99.90
36416;DHT22;22447;44.530;18.620;2023-07-31T07:41:24;24.60;99.90
36416;DHT22;22447;44.530;18.620;2023-07-31T07:43:49;24.50;99.90
36416;DHT22;22447;44.530;18.620;2023-07-31T07:46:16;24.60;99.90
36416;DHT22;22447;44.530;18.620;2023-07-31T07:48:42;24.40;99.90
36416;DHT22;22447;44.530;18.620;2023-07-31T07:51:08;24.70;99.90
36416;DHT22;22447;44.530;18.620;2023-07-31T07:53:34;25.20;99.90
36416;DHT22;22447;44.530;18.620;2023-07-31T07:56:00;25.40;99.90
36416;DHT22;22447;44.530;18.620;2023-07-31T07:58:26;25.70;99.90
36416;DHT22;22447;44.530;18.620;2023-07-31T08:00:52;26.00;99.90
36416;DHT22;22447;44.530;18.620;2023-07-31T08:03:21;26.10;99.90
36416;DHT22;22447;44.530;18.620;2023-07-31T08:05:47;26.00;99.70
36416;DHT22;22447;44.530;18.620;2023-07-31T08:08:16;26.40;99.30
36416;DHT22;22447;44.530;18.620;2023-07-31T08:10:42;26.90;96.40
36416;DHT22;22447;44.530;18.620;2023-07-31T08:13:12;27.20;95.50
36416;DHT22;22447;44.530;18.620;2023-07-31T08:15:41;27.60;93.70
36416;DHT22;22447;44.530;18.620;2023-07-31T08:18:07;28.00;92.10
36416;DHT22;22447;44.530;18.620;2023-07-31T08:20:32;28.10;92.20
36416;DHT22;22447;44.530;18.620;2023-07-31T08:22:58;28.50;91.50
36416;DHT22;22447;44.530;18.620;2023-07-31T08:25:24;28.60;89.10
36416;DHT22;22447;44.530;18.620;2023-07-31T08:27:50;28.80;81.40
36416;DHT22;22447;44.530;18.620;2023-07-31T08:30:19;28.80;78.20
36416;DHT22;22447;44.530;18.620;2023-07-31T08:32:45;29.30;76.40
36416;DHT22;22447;44.530;18.620;2023-07-31T08:35:11;29.40;72.20
36416;DHT22;22447;44.530;18.620;2023-07-31T08:37:37;29.60;67.90
36416;DHT22;22447;44.530;18.620;2023-07-31T08:40:04;29.10;63.70
36416;DHT22;22447;44.530;18.620;2023-07-31T08:42:31;28.70;62.90
36416;DHT22;22447;44.530;18.620;2023-07-31T08:44:58;29.00;65.60
36416;DHT22;22447;44.530;18.620;2023-07-31T08:47:25;28.90;61.20
36416;DHT22;22447;44.530;18.620;2023-07-31T08:49:52;29.20;64.00
36416;DHT22;22447;44.530;18.620;2023-07-31T08:52:19;29.40;55.70
36416;DHT22;22447;44.530;18.620;2023-07-31T08:54:50;29.30;54.50
36416;DHT22;22447;44.530;18.620;2023-07-31T08:57:16;29.30;56.00
36416;DHT22;22447;44.530;18.620;2023-07-31T08:59:43;29.20;53.50
36416;DHT22;22447;44.530;18.620;2023-07-31T09:02:10;28.80;54.90
36416;DHT22;22447;44.530;18.620;2023-07-31T09:04:37;29.50;55.60
36416;DHT22;22447;44.530;18.620;2023-07-31T09:07:04;30.40;57.00
36416;DHT22;22447;44.530;18.620;2023-07-31T09:09:31;28.90;53.00
36416;DHT22;22447;44.530;18.620;2023-07-31T09:11:58;29.00;56.30
36416;DHT22;22447;44.530;18.620;2023-07-31T09:14:27;30.30;58.90
36416;DHT22;22447;44.530;18.620;2023-07-31T09:16:57;30.50;54.90
36416;DHT22;22447;44.530;18.620;2023-07-31T09:19:32;30.90;52.50
36416;DHT22;22447;44.530;18.620;2023-07-31T09:22:00;30.50;53.00
36416;DHT22;22447;44.530;18.620;2023-07-31T09:24:27;30.80;55.10
36416;DHT22;22447;44.530;18.620;2023-07-31T09:26:54;30.90;54.30
36416;DHT22;22447;44.530;18.620;2023-07-31T09:29:22;30.50;50.90
36416;DHT22;22447;44.530;18.620;2023-07-31T09:31:48;29.70;51.00
36416;DHT22;22447;44.530;18.620;2023-07-31T09:34:14;29.50;53.30
36416;DHT22;22447;44.530;18.620;2023-07-31T09:36:48;29.70;52.30
36416;DHT22;22447;44.530;18.620;2023-07-31T09:39:18;30.10;50.80
36416;DHT22;22447;44.530;18.620;2023-07-31T09:41:48;29.90;47.00
36416;DHT22;22447;44.530;18.620;2023-07-31T09:44:18;29.70;52.40
36416;DHT22;22447;44.530;18.620;2023-07-31T09:46:45;30.40;47.80
36416;DHT22;22447;44.530;18.620;2023-07-31T09:49:12;29.90;46.80
36416;DHT22;22447;44.530;18.620;2023-07-31T09:51:39;29.70;48.70
36416;DHT22;22447;44.530;18.620;2023-07-31T09:54:13;29.30;52.70
36416;DHT22;22447;44.530;18.620;2023-07-31T09:56:46;29.20;52.40
36416;DHT22;22447;44.530;18.620;2023-07-31T09:59:21;28.40;51.20
36416;DHT22;22447;44.530;18.620;2023-07-31T10:01:53;28.20;51.20
36416;DHT22;22447;44.530;18.620;2023-07-31T10:04:28;28.00;59.60
36416;DHT22;22447;44.530;18.620;2023-07-31T10:06:55;28.60;51.80
36416;DHT22;22447;44.530;18.620;2023-07-31T10:09:24;28.80;51.20
36416;DHT22;22447;44.530;18.620;2023-07-31T10:12:00;28.80;50.20
36416;DHT22;22447;44.530;18.620;2023-07-31T10:14:31;28.80;52.60
36416;DHT22;22447;44.530;18.620;2023-07-31T10:16:58;29.20;46.20
36416;DHT22;22447;44.530;18.620;2023-07-31T10:19:26;29.70;44.80
36416;DHT22;22447;44.530;18.620;2023-07-31T10:21:53;30.00;46.00
36416;DHT22;22447;44.530;18.620;2023-07-31T10:24:19;29.90;47.60
36416;DHT22;22447;44.530;18.620;2023-07-31T10:26:47;30.10;44.90
36416;DHT22;22447;44.530;18.620;2023-07-31T10:29:16;30.50;47.20
36416;DHT22;22447;44.530;18.620;2023-07-31T10:31:49;30.90;41.80
36416;DHT22;22447;44.530;18.620;2023-07-31T10:34:15;30.90;38.70
36416;DHT22;22447;44.530;18.620;2023-07-31T10:36:41;31.10;45.50
36416;DHT22;22447;44.530;18.620;2023-07-31T10:39:34;31.60;46.10
36416;DHT22;22447;44.530;18.620;2023-07-31T10:42:12;32.20;41.20
36416;DHT22;22447;44.530;18.620;2023-07-31T10:44:43;32.60;42.50
36416;DHT22;22447;44.530;18.620;2023-07-31T10:47:10;32.30;33.30
36416;DHT22;22447;44.530;18.620;2023-07-31T10:49:45;32.70;37.10
36416;DHT22;22447;44.530;18.620;2023-07-31T10:52:21;31.70;31.70
36416;DHT22;22447;44.530;18.620;2023-07-31T10:55:14;31.50;42.30
36416;DHT22;22447;44.530;18.620;2023-07-31T10:57:44;32.00;37.30
36416;DHT22;22447;44.530;18.620;2023-07-31T11:00:30;32.20;34.10
36416;DHT22;22447;44.530;18.620;2023-07-31T11:02:57;32.10;33.40
36416;DHT22;22447;44.530;18.620;2023-07-31T11:05:52;32.60;32.40
36416;DHT22;22447;44.530;18.620;2023-07-31T11:08:26;32.40;30.80
36416;DHT22;22447;44.530;18.620;2023-07-31T11:13:28;32.40;38.70
36416;DHT22;22447;44.530;18.620;2023-07-31T11:15:53;32.80;35.10
36416;DHT22;22447;44.530;18.620;2023-07-31T11:18:19;32.90;36.00
36416;DHT22;22447;44.530;18.620;2023-07-31T11:20:46;33.20;38.20
36416;DHT22;22447;44.530;18.620;2023-07-31T11:23:13;33.30;29.20
36416;DHT22;22447;44.530;18.620;2023-07-31T11:25:41;33.00;31.10
36416;DHT22;22447;44.530;18.620;2023-07-31T11:28:17;32.50;28.70
36416;DHT22;22447;44.530;18.620;2023-07-31T11:30:44;30.90;30.30
36416;DHT22;22447;44.530;18.620;2023-07-31T11:33:12;31.30;30.00
36416;DHT22;22447;44.530;18.620;2023-07-31T11:35:49;31.30;32.00
36416;DHT22;22447;44.530;18.620;2023-07-31T11:38:32;32.00;32.30
36416;DHT22;22447;44.530;18.620;2023-07-31T11:41:00;32.40;28.50
36416;DHT22;22447;44.530;18.620;2023-07-31T11:43:31;31.60;28.30
36416;DHT22;22447;44.530;18.620;2023-07-31T11:46:00;31.70;28.60
36416;DHT22;22447;44.530;18.620;2023-07-31T11:48:34;31.90;33.10
36416;DHT22;22447;44.530;18.620;2023-07-31T11:51:03;31.60;28.40
36416;DHT22;22447;44.530;18.620;2023-07-31T11:56:01;32.50;28.40
36416;DHT22;22447;44.530;18.620;2023-07-31T11:58:31;31.80;27.10
36416;DHT22;22447;44.530;18.620;2023-07-31T12:00:58;31.90;31.90
36416;DHT22;22447;44.530;18.620;2023-07-31T12:03:25;31.80;31.50
36416;DHT22;22447;44.530;18.620;2023-07-31T12:05:53;32.20;34.90
36416;DHT22;22447;44.530;18.620;2023-07-31T12:08:21;32.60;33.80
36416;DHT22;22447;44.530;18.620;2023-07-31T12:10:50;32.30;31.90
36416;DHT22;22447;44.530;18.620;2023-07-31T12:13:26;32.00;32.10
36416;DHT22;22447;44.530;18.620;2023-07-31T12:15:57;32.30;34.20
36416;DHT22;22447;44.530;18.620;2023-07-31T12:18:25;32.60;33.20
36416;DHT22;22447;44.530;18.620;2023-07-31T12:20:56;32.90;30.80
36416;DHT22;22447;44.530;18.620;2023-07-31T12:23:26;33.10;32.10
36416;DHT22;22447;44.530;18.620;2023-07-31T12:26:15;33.40;30.80
36416;DHT22;22447;44.530;18.620;2023-07-31T12:31:12;34.00;30.90
36416;DHT22;22447;44.530;18.620;2023-07-31T12:33:39;34.10;33.30
36416;DHT22;22447;44.530;18.620;2023-07-31T12:36:16;34.40;30.70
36416;DHT22;22447;44.530;18.620;2023-07-31T12:38:43;33.90;32.20
36416;DHT22;22447;44.530;18.620;2023-07-31T12:41:10;32.50;31.60
36416;DHT22;22447;44.530;18.620;2023-07-31T12:43:38;32.00;29.50
36416;DHT22;22447;44.530;18.620;2023-07-31T12:46:04;32.30;30.30
36416;DHT22;22447;44.530;18.620;2023-07-31T12:48:31;33.20;31.80
36416;DHT22;22447;44.530;18.620;2023-07-31T12:50:58;33.50;32.50
36416;DHT22;22447;44.530;18.620;2023-07-31T12:53:23;33.60;32.50
36416;DHT22;22447;44.530;18.620;2023-07-31T12:55:49;33.70;30.30
36416;DHT22;22447;44.530;18.620;2023-07-31T12:58:15;33.70;31.30
36416;DHT22;22447;44.530;18.620;2023-07-31T13:00:41;33.40;34.80
36416;DHT22;22447;44.530;18.620;2023-07-31T13:03:08;33.00;29.20
36416;DHT22;22447;44.530;18.620;2023-07-31T13:05:34;32.80;28.30
36416;DHT22;22447;44.530;18.620;2023-07-31T13:08:00;32.20;29.40
36416;DHT22;22447;44.530;18.620;2023-07-31T13:10:27;32.90;30.20
36416;DHT22;22447;44.530;18.620;2023-07-31T13:12:54;32.20;28.80
36416;DHT22;22447;44.530;18.620;2023-07-31T13:15:20;31.50;29.40
36416;DHT22;22447;44.530;18.620;2023-07-31T13:17:46;32.00;29.50
36416;DHT22;22447;44.530;18.620;2023-07-31T13:20:12;32.50;29.00
36416;DHT22;22447;44.530;18.620;2023-07-31T13:22:38;32.60;29.70
36416;DHT22;22447;44.530;18.620;2023-07-31T13:25:04;32.00;27.50
36416;DHT22;22447;44.530;18.620;2023-07-31T13:27:30;32.10;38.40
36416;DHT22;22447;44.530;18.620;2023-07-31T13:29:56;32.20;31.10
36416;DHT22;22447;44.530;18.620;2023-07-31T13:32:22;32.20;28.90
36416;DHT22;22447;44.530;18.620;2023-07-31T13:34:49;32.20;31.10
36416;DHT22;22447;44.530;18.620;2023-07-31T13:37:15;32.20;31.60
36416;DHT22;22447;44.530;18.620;2023-07-31T13:39:41;31.70;30.30
36416;DHT22;22447;44.530;18.620;2023-07-31T13:42:08;31.60;31.70
36416;DHT22;22447;44.530;18.620;2023-07-31T13:44:34;31.80;33.90
36416;DHT22;22447;44.530;18.620;2023-07-31T13:47:01;32.00;32.50
36416;DHT22;22447;44.530;18.620;2023-07-31T13:49:27;32.30;30.10
36416;DHT22;22447;44.530;18.620;2023-07-31T13:51:53;32.30;28.60
36416;DHT22;22447;44.530;18.620;2023-07-31T13:54:19;31.80;30.00
36416;DHT22;22447;44.530;18.620;2023-07-31T13:56:45;31.50;31.00
36416;DHT22;22447;44.530;18.620;2023-07-31T13:59:11;31.80;29.80
36416;DHT22;22447;44.530;18.620;2023-07-31T14:01:37;31.70;29.60
36416;DHT22;22447;44.530;18.620;2023-07-31T14:04:03;31.80;29.90
36416;DHT22;22447;44.530;18.620;2023-07-31T14:06:29;31.60;29.50
36416;DHT22;22447;44.530;18.620;2023-07-31T14:08:55;30.70;32.50
36416;DHT22;22447;44.530;18.620;2023-07-31T14:11:22;29.80;30.90
36416;DHT22;22447;44.530;18.620;2023-07-31T14:13:49;30.30;31.70
36416;DHT22;22447;44.530;18.620;2023-07-31T14:16:15;30.10;31.30
36416;DHT22;22447;44.530;18.620;2023-07-31T14:18:41;30.00;32.20
36416;DHT22;22447;44.530;18.620;2023-07-31T14:21:08;30.10;35.00
36416;DHT22;22447;44.530;18.620;2023-07-31T14:23:34;30.00;33.60
36416;DHT22;22447;44.530;18.620;2023-07-31T14:26:00;29.80;35.20
36416;DHT22;22447;44.530;18.620;2023-07-31T14:28:25;29.80;35.60
36416;DHT22;22447;44.530;18.620;2023-07-31T14:30:51;29.70;38.60
36416;DHT22;22447;44.530;18.620;2023-07-31T14:33:17;29.90;39.40
36416;DHT22;22447;44.530;18.620;2023-07-31T14:35:43;30.00;37.30
36416;DHT22;22447;44.530;18.620;2023-07-31T14:38:09;30.10;35.60
36416;DHT22;22447;44.530;18.620;2023-07-31T14:40:35;30.00;36.40
36416;DHT22;22447;44.530;18.620;2023-07-31T14:43:02;29.60;41.90
36416;DHT22;22447;44.530;18.620;2023-07-31T14:45:28;29.40;44.50
36416;DHT22;22447;44.530;18.620;2023-07-31T14:47:54;29.00;40.40
36416;DHT22;22447;44.530;18.620;2023-07-31T14:50:20;28.90;46.80
36416;DHT22;22447;44.530;18.620;2023-07-31T14:52:47;28.90;45.90
36416;DHT22;22447;44.530;18.620;2023-07-31T14:55:14;28.70;46.60
36416;DHT22;22447;44.530;18.620;2023-07-31T14:57:40;28.60;43.60
36416;DHT22;22447;44.530;18.620;2023-07-31T15:00:06;29.00;41.00
36416;DHT22;22447;44.530;18.620;2023-07-31T15:02:39;29.00;41.70
36416;DHT22;22447;44.530;18.620;2023-07-31T15:05:05;28.90;36.10
36416;DHT22;22447;44.530;18.620;2023-07-31T15:07:32;29.00;36.90
36416;DHT22;22447;44.530;18.620;2023-07-31T15:09:58;28.90;36.80
36416;DHT22;22447;44.530;18.620;2023-07-31T15:12:25;28.30;35.40
36416;DHT22;22447;44.530;18.620;2023-07-31T15:14:52;28.40;38.00
36416;DHT22;22447;44.530;18.620;2023-07-31T15:17:18;28.30;38.80
36416;DHT22;22447;44.530;18.620;2023-07-31T15:19:44;28.30;39.00
36416;DHT22;22447;44.530;18.620;2023-07-31T15:22:10;28.30;38.30
36416;DHT22;22447;44.530;18.620;2023-07-31T15:24:36;28.40;42.20
36416;DHT22;22447;44.530;18.620;2023-07-31T15:27:02;28.30;42.50